Time;durP1;ratioP1;P1;durP2;ratioP2;P2;SDS_P1;SDS_P2;PMS_P1;PMS_P2;Temp;Humidity;BMP_temperature;BMP_pressure;BME280_temperature;BME280_humidity;BME280_pressure;Samples;Min_cycle;Max_cycle;Signal;HPM_P1;HPM_P2
2022/05/11 00:01:00;;;;;;;;;;;22.10;52.30;;;;;;5076213;28;19924;-48
2022/05/11 00:03:27;;;;;;;;;;;22.10;52.30;;;;;;5075683;28;19973;-47
2022/05/11 00:05:54;;;;;;;;;;;22.10;52.40;;;;;;5074373;28;19931;-48
2022/05/11 00:08:21;;;;;;;;;;;22.10;52.40;;;;;;5075789;28;19978;-47
2022/05/11 00:10:49;;;;;;;;;;;22.10;52.40;;;;;;5075973;28;19931;-48
2022/05/11 00:13:16;;;;;;;;;;;22.10;52.40;;;;;;5075972;28;20295;-46
2022/05/11 00:15:43;;;;;;;;;;;22.10;53.00;;;;;;5075517;28;19928;-46
2022/05/11 00:18:10;;;;;;;;;;;22.10;52.40;;;;;;5075505;28;19931;-47
2022/05/11 00:20:37;;;;;;;;;;;22.10;52.40;;;;;;5074986;28;19931;-47
2022/05/11 00:23:04;;;;;;;;;;;22.10;52.40;;;;;;5075304;28;19931;-49
2022/05/11 00:25:32;;;;;;;;;;;22.10;52.40;;;;;;5075275;28;19924;-47
2022/05/11 00:27:59;;;;;;;;;;;22.10;52.40;;;;;;5074734;28;19924;-49
2022/05/11 00:30:26;;;;;;;;;;;22.10;52.40;;;;;;5075435;28;19924;-50
2022/05/11 00:32:56;;;;;;;;;;;22.10;52.40;;;;;;5075547;28;20324;-48
2022/05/11 00:35:24;;;;;;;;;;;22.10;52.40;;;;;;5075111;28;19932;-47
2022/05/11 00:37:51;;;;;;;;;;;22.10;52.40;;;;;;5075214;28;19998;-47
2022/05/11 00:40:20;;;;;;;;;;;22.10;52.40;;;;;;5088157;28;20490;-47
2022/05/11 00:42:47;;;;;;;;;;;22.10;52.40;;;;;;5095643;28;20299;-50
2022/05/11 00:45:15;;;;;;;;;;;22.10;52.40;;;;;;5095794;28;19931;-46
2022/05/11 00:47:51;;;;;;;;;;;22.10;52.40;;;;;;5095481;28;20291;-47
2022/05/11 00:50:20;;;;;;;;;;;22.10;52.40;;;;;;5095325;28;19928;-48
2022/05/11 00:53:13;;;;;;;;;;;22.10;52.40;;;;;;5095141;28;19924;-47
2022/05/11 00:55:42;;;;;;;;;;;22.10;52.50;;;;;;5073455;28;19924;-48
2022/05/11 00:58:11;;;;;;;;;;;22.10;52.40;;;;;;5074862;28;19928;-48
2022/05/11 01:00:39;;;;;;;;;;;22.10;52.40;;;;;;5074392;28;19924;-47
2022/05/11 01:03:16;;;;;;;;;;;22.10;52.50;;;;;;5074955;28;19928;-49
2022/05/11 01:05:44;;;;;;;;;;;22.10;52.40;;;;;;5074495;28;20415;-47
2022/05/11 01:08:13;;;;;;;;;;;22.10;52.50;;;;;;5074694;28;19924;-48
2022/05/11 01:10:41;;;;;;;;;;;22.10;52.50;;;;;;5054526;28;19939;-47
2022/05/11 01:13:09;;;;;;;;;;;22.10;52.50;;;;;;5054938;28;19931;-49
2022/05/11 01:15:37;;;;;;;;;;;22.10;52.50;;;;;;5054946;28;19924;-49
2022/05/11 01:18:05;;;;;;;;;;;22.10;52.50;;;;;;5054545;28;20372;-49
2022/05/11 01:20:33;;;;;;;;;;;22.10;52.50;;;;;;5054159;28;19932;-50
2022/05/11 01:23:09;;;;;;;;;;;22.10;52.50;;;;;;5054162;28;19995;-48
2022/05/11 01:25:36;;;;;;;;;;;22.10;52.60;;;;;;5054261;28;19925;-49
2022/05/11 01:28:11;;;;;;;;;;;22.10;52.50;;;;;;5066502;28;19929;-54
2022/05/11 01:30:42;;;;;;;;;;;22.10;52.60;;;;;;5054267;28;19932;-47
2022/05/11 01:33:13;;;;;;;;;;;22.10;52.50;;;;;;5054411;28;20292;-52
2022/05/11 01:36:03;;;;;;;;;;;22.10;52.60;;;;;;5069528;28;19924;-49
2022/05/11 01:38:44;;;;;;;;;;;22.10;52.50;;;;;;5093096;28;19931;-49
2022/05/11 01:41:17;;;;;;;;;;;22.10;52.50;;;;;;5094348;28;19924;-49
2022/05/11 01:43:44;;;;;;;;;;;22.10;52.50;;;;;;5094022;28;20387;-51
2022/05/11 01:46:11;;;;;;;;;;;22.10;52.60;;;;;;5094448;28;19928;-49
2022/05/11 01:48:38;;;;;;;;;;;22.10;52.60;;;;;;5093939;28;19924;-47
2022/05/11 01:51:06;;;;;;;;;;;22.10;52.60;;;;;;5076283;28;19931;-47
2022/05/11 01:53:33;;;;;;;;;;;22.10;52.50;;;;;;5074082;28;20131;-52
2022/05/11 01:56:00;;;;;;;;;;;22.10;52.60;;;;;;5086632;28;19928;-50
2022/05/11 01:58:27;;;;;;;;;;;22.10;52.60;;;;;;5084452;28;20405;-47
2022/05/11 02:00:54;;;;;;;;;;;22.10;52.60;;;;;;5073892;28;19932;-48
2022/05/11 02:03:21;;;;;;;;;;;22.10;52.60;;;;;;5073238;28;19924;-49
2022/05/11 02:08:36;;;;;;;;;;;22.10;52.60;;;;;;5073468;28;19925;-50
2022/05/11 02:11:04;;;;;;;;;;;22.10;52.60;;;;;;5073800;28;19935;-52
2022/05/11 02:13:32;;;;;;;;;;;22.10;52.60;;;;;;5073491;28;19924;-51
2022/05/11 02:15:59;;;;;;;;;;;22.10;52.60;;;;;;5073661;28;20287;-50
2022/05/11 02:18:27;;;;;;;;;;;22.10;52.60;;;;;;5073798;28;19931;-49
2022/05/11 02:20:54;;;;;;;;;;;22.10;52.60;;;;;;5073504;28;19931;-52
2022/05/11 02:23:22;;;;;;;;;;;22.10;52.60;;;;;;5073094;28;19931;-47
2022/05/11 02:25:49;;;;;;;;;;;22.10;52.60;;;;;;5073268;28;19931;-50
2022/05/11 02:28:17;;;;;;;;;;;22.10;53.20;;;;;;5073551;28;20323;-54
2022/05/11 02:30:45;;;;;;;;;;;22.10;52.60;;;;;;5073377;28;20299;-52
2022/05/11 02:33:13;;;;;;;;;;;22.10;52.60;;;;;;5091248;28;20280;-51
2022/05/11 02:35:41;;;;;;;;;;;22.10;52.60;;;;;;5093846;28;20264;-55
2022/05/11 02:38:10;;;;;;;;;;;22.10;52.60;;;;;;5093247;28;19924;-52
2022/05/11 02:40:38;;;;;;;;;;;22.10;52.60;;;;;;5092512;28;19931;-51
2022/05/11 02:43:05;;;;;;;;;;;22.10;52.60;;;;;;5093120;28;19932;-53
2022/05/11 02:45:33;;;;;;;;;;;22.10;52.60;;;;;;5090608;28;20391;-49
2022/05/11 02:48:04;;;;;;;;;;;22.10;52.60;;;;;;5073203;28;20331;-47
2022/05/11 02:50:32;;;;;;;;;;;22.10;52.60;;;;;;5072970;28;19970;-47
2022/05/11 02:53:02;;;;;;;;;;;22.10;52.60;;;;;;5072935;28;20376;-54
2022/05/11 02:55:30;;;;;;;;;;;22.10;52.60;;;;;;5073976;28;19924;-53
2022/05/11 02:57:57;;;;;;;;;;;22.10;52.70;;;;;;5093494;28;19925;-52
2022/05/11 03:00:24;;;;;;;;;;;22.10;52.60;;;;;;5092955;28;20440;-55
2022/05/11 03:02:51;;;;;;;;;;;22.10;52.60;;;;;;5092908;28;19931;-49
2022/05/11 03:05:18;;;;;;;;;;;22.10;52.60;;;;;;5092807;28;19928;-49
2022/05/11 03:07:45;;;;;;;;;;;22.10;52.70;;;;;;5092671;28;19935;-47
2022/05/11 03:10:13;;;;;;;;;;;22.10;52.60;;;;;;5076223;28;19925;-48
2022/05/11 03:12:40;;;;;;;;;;;22.10;52.70;;;;;;5072735;28;19924;-47
2022/05/11 03:15:07;;;;;;;;;;;22.10;52.70;;;;;;5072575;28;19931;-49
2022/05/11 03:17:36;;;;;;;;;;;22.10;52.60;;;;;;5072342;28;20028;-48
2022/05/11 03:20:03;;;;;;;;;;;22.10;52.70;;;;;;5072392;28;20407;-48
2022/05/11 03:22:30;;;;;;;;;;;22.10;52.60;;;;;;5072530;28;20362;-49
2022/05/11 03:24:57;;;;;;;;;;;22.10;52.70;;;;;;5072853;28;20381;-47
2022/05/11 03:27:24;;;;;;;;;;;22.10;52.60;;;;;;5073811;28;19925;-49
2022/05/11 03:29:52;;;;;;;;;;;22.10;52.70;;;;;;5092905;28;19924;-49
2022/05/11 03:35:06;;;;;;;;;;;22.10;52.60;;;;;;5092940;28;19928;-49
2022/05/11 03:37:33;;;;;;;;;;;22.10;52.70;;;;;;5092889;28;19934;-47
2022/05/11 03:40:01;;;;;;;;;;;22.10;52.70;;;;;;5092729;28;19924;-47
2022/05/11 03:42:30;;;;;;;;;;;22.10;52.70;;;;;;5092496;28;20399;-49
2022/05/11 03:45:06;;;;;;;;;;;22.10;52.70;;;;;;5093157;28;19993;-47
2022/05/11 03:47:33;;;;;;;;;;;22.10;52.70;;;;;;5073224;28;19936;-50
2022/05/11 03:50:00;;;;;;;;;;;22.10;52.70;;;;;;5070444;28;19925;-47
2022/05/11 03:52:27;;;;;;;;;;;22.10;52.60;;;;;;5054744;28;19924;-47
2022/05/11 03:54:54;;;;;;;;;;;22.10;52.60;;;;;;5056123;28;19924;-50
2022/05/11 03:57:21;;;;;;;;;;;22.10;52.60;;;;;;5055928;28;19932;-49
2022/05/11 03:59:48;;;;;;;;;;;22.10;52.60;;;;;;5056141;28;19933;-48
2022/05/11 04:02:15;;;;;;;;;;;22.10;52.60;;;;;;5056445;28;19931;-48
2022/05/11 04:04:42;;;;;;;;;;;22.10;52.60;;;;;;5056288;28;19986;-48
2022/05/11 04:07:09;;;;;;;;;;;22.10;52.60;;;;;;5056071;28;20301;-48
2022/05/11 04:09:36;;;;;;;;;;;22.10;52.50;;;;;;5067012;28;19925;-49
2022/05/11 04:12:04;;;;;;;;;;;22.20;52.60;;;;;;5075660;28;19928;-50
2022/05/11 04:14:30;;;;;;;;;;;22.10;52.50;;;;;;5075830;28;19924;-47
2022/05/11 04:16:59;;;;;;;;;;;22.10;52.50;;;;;;5075694;28;19928;-47
2022/05/11 04:19:27;;;;;;;;;;;22.20;52.60;;;;;;5074570;28;19924;-48
2022/05/11 04:21:54;;;;;;;;;;;22.10;52.50;;;;;;5075497;28;20281;-47
2022/05/11 04:24:21;;;;;;;;;;;22.20;52.60;;;;;;5080042;28;19924;-49
2022/05/11 04:26:51;;;;;;;;;;;22.20;52.50;;;;;;5095789;28;19924;-48
2022/05/11 04:29:18;;;;;;;;;;;22.20;52.50;;;;;;5095244;28;19928;-49
2022/05/11 04:31:56;;;;;;;;;;;22.20;52.50;;;;;;5095573;28;19924;-50
2022/05/11 04:34:24;;;;;;;;;;;22.20;52.50;;;;;;5095418;28;20022;-47
2022/05/11 04:36:51;;;;;;;;;;;22.20;52.50;;;;;;5094405;28;19931;-50
2022/05/11 04:39:17;;;;;;;;;;;22.20;52.40;;;;;;5095440;28;20379;-49
2022/05/11 04:41:44;;;;;;;;;;;22.20;52.40;;;;;;5095316;28;19924;-49
2022/05/11 04:44:11;;;;;;;;;;;22.20;53.00;;;;;;5095818;28;19931;-48
2022/05/11 04:46:38;;;;;;;;;;;22.20;52.40;;;;;;5078274;28;19932;-49
2022/05/11 04:49:23;;;;;;;;;;;22.30;53.10;;;;;;5055499;28;19929;-48
2022/05/11 04:51:52;;;;;;;;;;;22.20;52.30;;;;;;5054781;28;20336;-50
2022/05/11 04:54:19;;;;;;;;;;;22.30;52.30;;;;;;5055533;28;20343;-50
2022/05/11 04:56:46;;;;;;;;;;;22.30;52.30;;;;;;5055278;28;20693;-47
2022/05/11 04:59:14;;;;;;;;;;;22.40;52.30;;;;;;5055137;28;19925;-48
2022/05/11 05:01:41;;;;;;;;;;;22.40;52.30;;;;;;5054943;28;20439;-49
2022/05/11 05:04:09;;;;;;;;;;;22.40;52.20;;;;;;5054329;28;19924;-49
2022/05/11 05:06:36;;;;;;;;;;;22.40;52.20;;;;;;5054539;28;19925;-49
2022/05/11 05:09:04;;;;;;;;;;;22.40;52.10;;;;;;5061939;28;20257;-50
2022/05/11 05:11:31;;;;;;;;;;;22.50;52.20;;;;;;5074878;28;20007;-49
2022/05/11 05:13:59;;;;;;;;;;;22.40;52.10;;;;;;5074818;28;19925;-50
2022/05/11 05:16:26;;;;;;;;;;;22.50;52.10;;;;;;5074719;28;19931;-52
2022/05/11 05:18:54;;;;;;;;;;;22.40;52.00;;;;;;5074667;28;19928;-51
2022/05/11 05:21:21;;;;;;;;;;;22.50;52.10;;;;;;5085032;28;19924;-49
2022/05/11 05:23:52;;;;;;;;;;;22.50;52.10;;;;;;5094244;28;19974;-49
2022/05/11 05:26:19;;;;;;;;;;;22.50;52.10;;;;;;5094634;28;19924;-50
2022/05/11 05:31:31;;;;;;;;;;;22.50;52.00;;;;;;5094346;28;19928;-49
2022/05/11 05:34:02;;;;;;;;;;;22.50;52.00;;;;;;5094490;28;19924;-48
2022/05/11 05:36:30;;;;;;;;;;;22.50;52.00;;;;;;5094413;28;19927;-49
2022/05/11 05:39:00;;;;;;;;;;;22.50;52.00;;;;;;5094293;28;19924;-49
2022/05/11 05:41:27;;;;;;;;;;;22.50;52.00;;;;;;5094303;28;19924;-49
2022/05/11 05:43:55;;;;;;;;;;;22.50;52.10;;;;;;5080830;28;19947;-49
2022/05/11 05:46:24;;;;;;;;;;;22.50;52.00;;;;;;5073597;28;19974;-51
2022/05/11 05:48:51;;;;;;;;;;;22.50;52.10;;;;;;5074019;28;19978;-55
2022/05/11 05:51:19;;;;;;;;;;;22.50;52.10;;;;;;5073662;28;19979;-53
2022/05/11 05:53:46;;;;;;;;;;;22.50;52.10;;;;;;5073930;28;19928;-50
2022/05/11 05:56:13;;;;;;;;;;;22.50;52.10;;;;;;5088736;28;20314;-53
2022/05/11 05:58:42;;;;;;;;;;;22.50;52.10;;;;;;5093762;28;19931;-50
2022/05/11 06:01:09;;;;;;;;;;;22.50;52.10;;;;;;5093925;28;19924;-50
2022/05/11 06:03:37;;;;;;;;;;;22.50;52.10;;;;;;5094218;28;19924;-48
2022/05/11 06:06:05;;;;;;;;;;;22.50;52.10;;;;;;5094409;28;20015;-53
2022/05/11 06:08:32;;;;;;;;;;;22.50;52.10;;;;;;5081115;28;19925;-52
2022/05/11 06:10:59;;;;;;;;;;;22.50;52.10;;;;;;5073486;28;19925;-52
2022/05/11 06:13:26;;;;;;;;;;;22.50;52.10;;;;;;5073288;28;19924;-51
2022/05/11 06:15:54;;;;;;;;;;;22.50;52.10;;;;;;5073341;28;19931;-50
2022/05/11 06:18:22;;;;;;;;;;;22.50;52.10;;;;;;5093037;28;20539;-49
2022/05/11 06:20:51;;;;;;;;;;;22.50;52.10;;;;;;5093183;28;19924;-52
2022/05/11 06:23:19;;;;;;;;;;;22.50;52.10;;;;;;5093099;28;19932;-50
2022/05/11 06:25:49;;;;;;;;;;;22.50;52.10;;;;;;5093378;28;19938;-51
2022/05/11 06:28:17;;;;;;;;;;;22.50;52.10;;;;;;5093591;28;19924;-52
2022/05/11 06:31:04;;;;;;;;;;;22.50;52.10;;;;;;5093364;28;20338;-51
2022/05/11 06:33:33;;;;;;;;;;;22.50;52.10;;;;;;5093577;28;19947;-49
2022/05/11 06:36:01;;;;;;;;;;;22.50;52.10;;;;;;5093494;28;20316;-51
2022/05/11 06:38:28;;;;;;;;;;;22.50;52.00;;;;;;5093123;28;19931;-50
2022/05/11 06:40:55;;;;;;;;;;;22.50;52.00;;;;;;5074569;28;19932;-50
2022/05/11 06:43:22;;;;;;;;;;;22.50;52.00;;;;;;5093051;28;19925;-51
2022/05/11 06:45:49;;;;;;;;;;;22.50;52.00;;;;;;5088749;28;20307;-56
2022/05/11 06:48:16;;;;;;;;;;;22.50;51.90;;;;;;5073177;28;20288;-49
2022/05/11 06:50:43;;;;;;;;;;;22.50;51.90;;;;;;5072216;28;20393;-57
2022/05/11 06:53:13;;;;;;;;;;;22.50;51.90;;;;;;5073274;28;19947;-49
2022/05/11 07:01:13;;;;;;;;;;;22.50;51.90;;;;;;5072657;28;19931;-53
2022/05/11 07:03:41;;;;;;;;;;;22.60;51.90;;;;;;5072613;28;19928;-50
2022/05/11 07:06:08;;;;;;;;;;;22.60;51.90;;;;;;5072923;28;20330;-54
2022/05/11 07:08:36;;;;;;;;;;;22.60;51.90;;;;;;5072494;28;20405;-55
2022/05/11 07:13:49;;;;;;;;;;;22.60;51.80;;;;;;5085673;28;19931;-50
2022/05/11 07:16:18;;;;;;;;;;;22.60;51.80;;;;;;5092935;28;19931;-54
2022/05/11 07:18:45;;;;;;;;;;;22.60;51.70;;;;;;5092938;28;19935;-49
2022/05/11 07:21:12;;;;;;;;;;;22.60;51.70;;;;;;5092900;28;19931;-49
2022/05/11 07:23:39;;;;;;;;;;;22.60;51.70;;;;;;5091627;28;19924;-55
2022/05/11 07:26:06;;;;;;;;;;;22.70;51.70;;;;;;5093593;28;19924;-54
2022/05/11 07:28:33;;;;;;;;;;;22.60;51.60;;;;;;5096483;28;20383;-53
2022/05/11 07:31:00;;;;;;;;;;;22.60;51.50;;;;;;5096896;28;19931;-50
2022/05/11 07:33:28;;;;;;;;;;;22.60;51.50;;;;;;5096035;28;20298;-53
2022/05/11 07:35:55;;;;;;;;;;;22.70;51.60;;;;;;5087716;28;19935;-48
2022/05/11 07:38:22;;;;;;;;;;;22.70;51.60;;;;;;5076530;28;19971;-55
2022/05/11 07:40:49;;;;;;;;;;;22.70;51.50;;;;;;5077176;28;19928;-56
2022/05/11 07:43:16;;;;;;;;;;;22.70;51.50;;;;;;5096937;28;19931;-55
2022/05/11 07:45:44;;;;;;;;;;;22.70;51.50;;;;;;5108507;28;19931;-55
2022/05/11 07:48:11;;;;;;;;;;;22.70;51.50;;;;;;5076343;28;19932;-55
2022/05/11 07:50:38;;;;;;;;;;;22.70;51.40;;;;;;5076037;28;19931;-50
2022/05/11 07:53:05;;;;;;;;;;;22.70;51.40;;;;;;5076222;28;19929;-50
2022/05/11 07:55:33;;;;;;;;;;;22.70;51.40;;;;;;5076094;28;19924;-54
2022/05/11 08:00:45;;;;;;;;;;;22.80;51.50;;;;;;5075868;28;19943;-53
2022/05/11 08:03:13;;;;;;;;;;;22.80;51.50;;;;;;5076067;28;19925;-51
2022/05/11 08:05:40;;;;;;;;;;;22.80;51.50;;;;;;5075428;28;19931;-50
2022/05/11 08:08:08;;;;;;;;;;;22.70;51.40;;;;;;5075915;28;20467;-55
2022/05/11 08:10:37;;;;;;;;;;;22.80;51.40;;;;;;5090999;28;19967;-48
2022/05/11 08:13:07;;;;;;;;;;;22.80;51.40;;;;;;5096585;28;20286;-53
2022/05/11 08:15:36;;;;;;;;;;;22.80;51.40;;;;;;5096448;28;19931;-51
2022/05/11 08:18:05;;;;;;;;;;;22.80;51.40;;;;;;5096143;28;20286;-49
2022/05/11 08:20:34;;;;;;;;;;;22.80;51.40;;;;;;5095717;28;19923;-48
2022/05/11 08:23:02;;;;;;;;;;;22.80;51.40;;;;;;5095249;28;19931;-50
2022/05/11 08:25:30;;;;;;;;;;;22.80;51.40;;;;;;5095973;28;19924;-50
2022/05/11 08:27:57;;;;;;;;;;;22.80;51.40;;;;;;5095994;28;20256;-49
2022/05/11 08:33:19;;;;;;;;;;;22.80;51.30;;;;;;5077743;28;19924;-52
2022/05/11 08:36:18;;;;;;;;;;;22.90;51.40;;;;;;5075637;28;19924;-49
2022/05/11 08:38:47;;;;;;;;;;;22.90;51.30;;;;;;5073791;28;19935;-49
2022/05/11 08:41:20;;;;;;;;;;;22.90;51.30;;;;;;5079283;28;20292;-51
2022/05/11 08:43:48;;;;;;;;;;;22.90;51.30;;;;;;5095714;28;19939;-50
2022/05/11 08:46:24;;;;;;;;;;;22.90;51.30;;;;;;5086640;28;20280;-49
2022/05/11 08:49:21;;;;;;;;;;;22.90;51.20;;;;;;5075327;28;19924;-48
2022/05/11 08:51:51;;;;;;;;;;;22.90;51.30;;;;;;5052655;28;19935;-48
2022/05/11 08:54:41;;;;;;;;;;;22.90;51.20;;;;;;5053000;28;19925;-52
2022/05/11 08:57:14;;;;;;;;;;;22.90;51.20;;;;;;5042420;28;19947;-50
2022/05/11 08:59:41;;;;;;;;;;;22.90;51.20;;;;;;5052670;28;19925;-51
2022/05/11 09:02:28;;;;;;;;;;;22.90;51.20;;;;;;5045271;28;19925;-48
2022/05/11 09:04:58;;;;;;;;;;;23.00;51.30;;;;;;5032690;28;19925;-48
2022/05/11 09:07:31;;;;;;;;;;;23.00;51.20;;;;;;5072418;28;19959;-53
2022/05/11 09:09:58;;;;;;;;;;;22.90;51.20;;;;;;5058196;28;19936;-52
2022/05/11 09:12:26;;;;;;;;;;;23.00;51.20;;;;;;5052768;28;19928;-50
2022/05/11 09:14:55;;;;;;;;;;;22.90;51.20;;;;;;5052106;28;19925;-49
2022/05/11 09:17:25;;;;;;;;;;;23.00;51.20;;;;;;5052648;28;20350;-52
2022/05/11 09:20:01;;;;;;;;;;;23.00;51.20;;;;;;5051563;28;19924;-48
2022/05/11 09:22:29;;;;;;;;;;;23.00;51.20;;;;;;5052167;28;19932;-53
2022/05/11 09:24:57;;;;;;;;;;;23.00;51.20;;;;;;5052061;28;19925;-48
2022/05/11 09:27:26;;;;;;;;;;;23.00;51.20;;;;;;5055158;28;19928;-51
2022/05/11 09:29:59;;;;;;;;;;;23.00;51.20;;;;;;5074584;28;20098;-51
2022/05/11 09:32:32;;;;;;;;;;;23.00;51.20;;;;;;5075042;28;20015;-51
2022/05/11 09:35:18;;;;;;;;;;;23.00;51.20;;;;;;5074447;28;19925;-49
2022/05/11 09:37:54;;;;;;;;;;;23.00;51.20;;;;;;5073933;28;19932;-50
2022/05/11 09:40:22;;;;;;;;;;;23.00;51.20;;;;;;5074190;28;19925;-50
2022/05/11 09:42:55;;;;;;;;;;;23.00;51.20;;;;;;5080092;28;19924;-51
2022/05/11 09:45:39;;;;;;;;;;;23.10;51.30;;;;;;5073978;28;19932;-52
2022/05/11 09:48:12;;;;;;;;;;;23.00;51.20;;;;;;5073924;28;19929;-54
2022/05/11 09:50:41;;;;;;;;;;;23.00;51.20;;;;;;5073312;28;19932;-50
2022/05/11 09:53:26;;;;;;;;;;;23.10;51.30;;;;;;5073743;28;19924;-50
2022/05/11 09:56:16;;;;;;;;;;;23.10;51.40;;;;;;5086128;28;20011;-53
2022/05/11 09:58:44;;;;;;;;;;;23.10;51.40;;;;;;5094340;28;19947;-49
2022/05/11 10:01:16;;;;;;;;;;;23.10;51.40;;;;;;5092502;28;19924;-49
2022/05/11 10:03:46;;;;;;;;;;;23.10;51.30;;;;;;5053902;28;19932;-56
2022/05/11 10:06:25;;;;;;;;;;;23.10;51.30;;;;;;5053297;28;19925;-54
2022/05/11 10:08:52;;;;;;;;;;;23.10;51.30;;;;;;5059116;28;20025;-49
2022/05/11 10:11:22;;;;;;;;;;;23.10;51.30;;;;;;5073511;28;19932;-52
2022/05/11 10:13:52;;;;;;;;;;;23.10;51.30;;;;;;5073459;28;19924;-49
2022/05/11 10:22:13;;;;;;;;;;;23.10;51.30;;;;;;5073625;28;19947;-48
2022/05/11 10:24:40;;;;;;;;;;;23.10;51.30;;;;;;5073589;28;20294;-50
2022/05/11 10:27:11;;;;;;;;;;;23.10;51.30;;;;;;5072854;28;19928;-49
2022/05/11 10:29:57;;;;;;;;;;;23.10;51.40;;;;;;5073130;28;20002;-52
2022/05/11 10:32:29;;;;;;;;;;;23.10;51.30;;;;;;5072696;28;20223;-54
2022/05/11 10:35:05;;;;;;;;;;;23.10;51.40;;;;;;5073483;28;19964;-52
2022/05/11 10:37:52;;;;;;;;;;;23.10;51.40;;;;;;5072943;28;19924;-53
2022/05/11 10:40:25;;;;;;;;;;;23.10;51.30;;;;;;5053050;28;19931;-48
2022/05/11 10:43:11;;;;;;;;;;;23.10;51.30;;;;;;5087767;28;20414;-51
2022/05/11 10:45:51;;;;;;;;;;;23.10;51.30;;;;;;5093211;28;19931;-48
2022/05/11 10:48:46;;;;;;;;;;;23.10;51.30;;;;;;5092483;28;19928;-48
2022/05/11 10:51:19;;;;;;;;;;;23.10;51.30;;;;;;5072646;28;20027;-50
2022/05/11 10:53:53;;;;;;;;;;;23.10;51.90;;;;;;5073267;28;19936;-53
2022/05/11 10:56:31;;;;;;;;;;;23.10;51.30;;;;;;5088445;28;20388;-50
2022/05/11 10:59:14;;;;;;;;;;;23.10;51.30;;;;;;5092711;28;19924;-49
2022/05/11 11:02:00;;;;;;;;;;;23.10;51.30;;;;;;5089242;28;19931;-53
2022/05/11 11:04:46;;;;;;;;;;;23.10;51.30;;;;;;5073301;28;19930;-50
2022/05/11 11:07:32;;;;;;;;;;;23.10;51.30;;;;;;5072806;28;19925;-51
2022/05/11 11:10:04;;;;;;;;;;;23.10;51.30;;;;;;5072523;28;20410;-53
2022/05/11 11:12:49;;;;;;;;;;;23.10;51.30;;;;;;5072683;28;20376;-52
2022/05/11 11:15:18;;;;;;;;;;;23.10;51.30;;;;;;5072713;28;19924;-49
2022/05/11 11:17:46;;;;;;;;;;;23.20;51.40;;;;;;5072462;28;19932;-49
2022/05/11 11:20:15;;;;;;;;;;;23.20;51.40;;;;;;5072783;28;20293;-50
2022/05/11 11:23:00;;;;;;;;;;;23.10;51.30;;;;;;5072657;28;19928;-49
2022/05/11 11:25:42;;;;;;;;;;;23.10;51.30;;;;;;5072563;28;20007;-49
2022/05/11 11:28:12;;;;;;;;;;;23.10;51.30;;;;;;5072647;28;20380;-52
2022/05/11 11:30:40;;;;;;;;;;;23.10;51.30;;;;;;5072588;28;20281;-50
2022/05/11 11:33:15;;;;;;;;;;;23.20;51.30;;;;;;5072906;28;20303;-51
2022/05/11 11:35:50;;;;;;;;;;;23.10;51.30;;;;;;5072563;28;19954;-49
2022/05/11 11:38:30;;;;;;;;;;;23.10;51.30;;;;;;5072766;28;20308;-52
2022/05/11 11:41:12;;;;;;;;;;;23.20;51.30;;;;;;5073661;28;19925;-54
2022/05/11 11:43:51;;;;;;;;;;;23.20;51.30;;;;;;5092763;28;19931;-55
2022/05/11 11:46:41;;;;;;;;;;;23.20;51.30;;;;;;5078326;28;19975;-52
2022/05/11 11:49:08;;;;;;;;;;;23.20;51.30;;;;;;5052617;28;19932;-53
2022/05/11 11:51:50;;;;;;;;;;;23.20;51.30;;;;;;5052297;28;20422;-54
2022/05/11 11:54:26;;;;;;;;;;;23.20;51.30;;;;;;5063027;28;19935;-52
2022/05/11 11:56:54;;;;;;;;;;;23.20;51.30;;;;;;5092846;28;19931;-54
2022/05/11 11:59:24;;;;;;;;;;;23.20;51.30;;;;;;5092662;28;19970;-48
2022/05/11 12:01:53;;;;;;;;;;;23.20;51.20;;;;;;5087665;28;19924;-52
2022/05/11 12:04:23;;;;;;;;;;;23.20;51.20;;;;;;5071901;28;19925;-52
2022/05/11 12:15:37;;;;;;;;;;;23.20;51.80;;;;;;5055848;28;19925;-51
2022/05/11 12:18:25;;;;;;;;;;;23.20;51.10;;;;;;5070463;28;19971;-54
2022/05/11 12:20:54;;;;;;;;;;;23.20;51.10;;;;;;5075485;28;19932;-52
2022/05/11 12:23:23;;;;;;;;;;;23.20;51.10;;;;;;5075442;28;20391;-52
2022/05/11 12:26:00;;;;;;;;;;;23.20;51.10;;;;;;5075841;28;19925;-53
2022/05/11 12:28:32;;;;;;;;;;;23.30;51.20;;;;;;5075246;28;19959;-49
2022/05/11 12:30:59;;;;;;;;;;;23.30;51.20;;;;;;5075746;28;20305;-49
2022/05/11 12:33:28;;;;;;;;;;;23.20;51.10;;;;;;5074665;28;19924;-52
2022/05/11 12:35:55;;;;;;;;;;;23.30;51.20;;;;;;5075540;28;19943;-52
2022/05/11 12:38:27;;;;;;;;;;;23.20;51.10;;;;;;5075717;28;19924;-48
2022/05/11 12:40:54;;;;;;;;;;;23.30;51.20;;;;;;5075683;28;19924;-48
2022/05/11 12:43:30;;;;;;;;;;;23.30;51.20;;;;;;5088830;28;19925;-56
2022/05/11 12:45:59;;;;;;;;;;;23.20;51.10;;;;;;5075369;28;19934;-51
2022/05/11 12:48:31;;;;;;;;;;;23.20;51.10;;;;;;5074924;28;19942;-52
2022/05/11 12:51:04;;;;;;;;;;;23.20;51.10;;;;;;5085171;28;19924;-53
2022/05/11 12:53:36;;;;;;;;;;;23.20;51.10;;;;;;5095147;28;20399;-52
2022/05/11 12:56:24;;;;;;;;;;;23.30;51.10;;;;;;5095593;28;20303;-50
2022/05/11 12:58:52;;;;;;;;;;;23.30;51.10;;;;;;5095040;28;19924;-53
2022/05/11 13:01:21;;;;;;;;;;;23.30;51.10;;;;;;5095284;28;19924;-48
2022/05/11 13:03:50;;;;;;;;;;;23.30;51.10;;;;;;5074258;28;20291;-48
2022/05/11 13:06:23;;;;;;;;;;;23.20;51.00;;;;;;5074785;28;20266;-48
2022/05/11 13:08:52;;;;;;;;;;;23.20;51.00;;;;;;5075044;28;19924;-50
2022/05/11 13:11:20;;;;;;;;;;;23.20;51.00;;;;;;5074938;28;19925;-49
2022/05/11 13:13:48;;;;;;;;;;;23.30;51.10;;;;;;5075032;28;19932;-48
2022/05/11 13:16:18;;;;;;;;;;;23.30;51.10;;;;;;5074887;28;19968;-49
2022/05/11 13:18:45;;;;;;;;;;;23.30;51.10;;;;;;5074654;28;19925;-51
2022/05/11 13:21:12;;;;;;;;;;;23.20;51.30;;;;;;5074733;28;20462;-49
2022/05/11 13:23:50;;;;;;;;;;;23.30;51.10;;;;;;5074065;28;19931;-48
2022/05/11 13:26:32;;;;;;;;;;;23.20;51.00;;;;;;5074367;28;19929;-49
2022/05/11 13:29:00;;;;;;;;;;;23.20;51.00;;;;;;5054422;28;19925;-55
2022/05/11 13:31:29;;;;;;;;;;;23.20;51.00;;;;;;5054543;28;20382;-54
2022/05/11 13:33:57;;;;;;;;;;;23.30;51.10;;;;;;5054243;28;19970;-51
2022/05/11 13:36:26;;;;;;;;;;;23.20;51.00;;;;;;5054317;28;19925;-50
2022/05/11 13:38:55;;;;;;;;;;;23.30;51.10;;;;;;5054880;28;19925;-48
2022/05/11 13:41:28;;;;;;;;;;;23.20;51.00;;;;;;5079132;28;20269;-51
2022/05/11 13:43:56;;;;;;;;;;;23.20;51.00;;;;;;5094423;28;20406;-52
2022/05/11 13:49:29;;;;;;;;;;;23.20;51.00;;;;;;5094062;28;19931;-50
2022/05/11 13:51:57;;;;;;;;;;;23.20;51.00;;;;;;5093982;28;19928;-50
2022/05/11 13:54:36;;;;;;;;;;;23.20;51.00;;;;;;5094082;28;19925;-49
2022/05/11 13:57:05;;;;;;;;;;;23.20;51.00;;;;;;5054140;28;19925;-48
2022/05/11 13:59:42;;;;;;;;;;;23.20;51.00;;;;;;5054092;28;19947;-49
2022/05/11 14:02:10;;;;;;;;;;;23.30;51.10;;;;;;5060797;28;19924;-48
2022/05/11 14:04:38;;;;;;;;;;;23.20;51.00;;;;;;5073720;28;19978;-48
2022/05/11 14:07:05;;;;;;;;;;;23.20;51.00;;;;;;5073549;28;19971;-53
2022/05/11 14:09:33;;;;;;;;;;;23.30;51.00;;;;;;5073223;28;20003;-49
2022/05/11 14:12:01;;;;;;;;;;;23.20;50.90;;;;;;5073964;28;19931;-47
2022/05/11 14:14:28;;;;;;;;;;;23.20;51.00;;;;;;5073622;28;19931;-48
2022/05/11 14:16:56;;;;;;;;;;;23.20;50.90;;;;;;5073932;28;20281;-49
2022/05/11 14:19:23;;;;;;;;;;;23.30;51.00;;;;;;5073448;28;19924;-50
2022/05/11 14:21:50;;;;;;;;;;;23.30;51.00;;;;;;5073265;28;20303;-55
2022/05/11 14:24:18;;;;;;;;;;;23.20;50.90;;;;;;5073163;28;20023;-49
2022/05/11 14:26:45;;;;;;;;;;;23.30;51.00;;;;;;5071955;28;19928;-50
2022/05/11 14:29:13;;;;;;;;;;;23.30;51.00;;;;;;5073295;28;19931;-48
2022/05/11 14:31:41;;;;;;;;;;;23.30;51.00;;;;;;5072849;28;19939;-55
2022/05/11 14:34:12;;;;;;;;;;;23.30;51.00;;;;;;5073252;28;19925;-49
2022/05/11 14:36:44;;;;;;;;;;;23.20;50.90;;;;;;5073210;28;20453;-49
2022/05/11 14:39:15;;;;;;;;;;;23.20;50.90;;;;;;5073238;28;19924;-50
2022/05/11 14:41:42;;;;;;;;;;;23.20;50.90;;;;;;5073524;28;19932;-52
2022/05/11 14:44:10;;;;;;;;;;;23.20;50.90;;;;;;5088879;28;19947;-51
2022/05/11 14:46:39;;;;;;;;;;;23.20;50.90;;;;;;5093556;28;19931;-47
2022/05/11 14:49:10;;;;;;;;;;;23.20;50.90;;;;;;5093211;28;19946;-47
2022/05/11 14:51:38;;;;;;;;;;;23.30;50.90;;;;;;5093531;28;19946;-48
2022/05/11 14:54:06;;;;;;;;;;;23.30;50.90;;;;;;5093107;28;19924;-51
2022/05/11 14:56:34;;;;;;;;;;;23.20;50.90;;;;;;5093112;28;19924;-49
2022/05/11 15:01:56;;;;;;;;;;;23.20;50.90;;;;;;5087997;28;20415;-51
2022/05/11 15:04:37;;;;;;;;;;;23.20;50.90;;;;;;5072892;28;20016;-52
2022/05/11 15:07:04;;;;;;;;;;;23.30;50.90;;;;;;5072583;28;20355;-48
2022/05/11 15:09:31;;;;;;;;;;;23.20;50.90;;;;;;5072895;28;20333;-54
2022/05/11 15:14:45;;;;;;;;;;;23.20;50.90;;;;;;5072968;28;19924;-54
2022/05/11 15:17:15;;;;;;;;;;;23.20;50.90;;;;;;5072649;28;19999;-50
2022/05/11 15:20:03;;;;;;;;;;;23.20;50.90;;;;;;5072317;28;19932;-50